Time;durP1;ratioP1;P1;durP2;ratioP2;P2;SDS_P1;SDS_P2;PMS_P1;PMS_P2;Temp;Humidity;BMP_temperature;BMP_pressure;BME280_temperature;BME280_humidity;BME280_pressure;Samples;Min_cycle;Max_cycle;Signal;HPM_P1;HPM_P2
2022/08/21 00:01:32;;;;;;;0.88;0.30;;;23.40;77.90;;;;;;4914956;29;20028;-74
2022/08/21 00:04:04;;;;;;;1.13;0.20;;;23.90;75.00;;;;;;4916535;29;20043;-74
2022/08/21 00:06:32;;;;;;;0.85;0.47;;;23.80;77.00;;;;;;4914953;29;20092;-74
2022/08/21 00:09:00;;;;;;;2.13;0.20;;;23.90;74.80;;;;;;4915345;29;20048;-74
2022/08/21 00:11:28;;;;;;;0.50;0.20;;;23.90;75.90;;;;;;4914650;29;20035;-74
2022/08/21 00:13:56;;;;;;;1.13;0.20;;;23.90;75.90;;;;;;4897665;29;20032;-75
2022/08/21 00:16:23;;;;;;;2.58;0.40;;;24.30;74.70;;;;;;4918956;29;20143;-74
2022/08/21 00:18:51;;;;;;;0.65;0.20;;;24.00;75.80;;;;;;4895365;29;20195;-74
2022/08/21 00:21:18;;;;;;;2.60;0.40;;;24.50;76.20;;;;;;4915658;29;20498;-73
2022/08/21 00:23:46;;;;;;;2.53;0.15;;;24.60;74.40;;;;;;4915768;29;20032;-74
2022/08/21 00:26:13;;;;;;;1.02;0.30;;;24.50;75.20;;;;;;4916308;29;20028;-73
2022/08/21 00:28:41;;;;;;;0.95;0.20;;;24.50;73.70;;;;;;4914664;29;20040;-74
2022/08/21 00:31:08;;;;;;;1.55;0.15;;;24.40;74.10;;;;;;4916140;29;20032;-74
2022/08/21 00:33:35;;;;;;;2.40;0.20;;;24.90;74.70;;;;;;4914630;29;20032;-74
2022/08/21 00:36:03;;;;;;;0.77;0.20;;;25.00;73.40;;;;;;4916103;29;20028;-74
2022/08/21 00:38:31;;;;;;;0.70;0.20;;;25.30;73.00;;;;;;4914400;29;20391;-73
2022/08/21 00:41:02;;;;;;;0.98;0.35;;;25.60;73.80;;;;;;4915827;29;20380;-75
2022/08/21 00:43:32;;;;;;;0.80;0.10;;;25.20;70.80;;;;;;4914069;29;20080;-75
2022/08/21 00:46:00;;;;;;;1.75;0.40;;;24.80;76.30;;;;;;4915625;29;20428;-74
2022/08/21 00:48:28;;;;;;;1.83;0.20;;;25.50;70.80;;;;;;4914446;29;20059;-73
2022/08/21 00:51:01;;;;;;;0.63;0.15;;;25.30;71.60;;;;;;4915794;29;20020;-75
2022/08/21 00:53:30;;;;;;;0.95;0.30;;;25.00;71.80;;;;;;4912826;29;20043;-74
2022/08/21 00:55:58;;;;;;;1.20;0.13;;;24.90;72.00;;;;;;4915780;29;20028;-74
2022/08/21 00:58:30;;;;;;;1.08;0.25;;;24.70;72.30;;;;;;4914146;29;20091;-73
2022/08/21 01:01:00;;;;;;;3.13;0.20;;;24.40;72.40;;;;;;4915741;29;20035;-74
2022/08/21 01:03:27;;;;;;;1.80;0.20;;;24.60;73.50;;;;;;4912613;29;20115;-73
2022/08/21 01:05:55;;;;;;;1.52;0.22;;;24.40;71.20;;;;;;4899626;29;20586;-75
2022/08/21 01:08:23;;;;;;;0.68;0.20;;;24.20;72.50;;;;;;4913881;29;20059;-74
2022/08/21 01:10:53;;;;;;;0.57;0.20;;;24.40;72.30;;;;;;4915507;29;20036;-74
2022/08/21 01:13:23;;;;;;;0.93;0.30;;;24.40;72.40;;;;;;4913966;29;20099;-75
2022/08/21 01:15:53;;;;;;;0.90;0.10;;;24.20;72.60;;;;;;4915380;29;20032;-75
2022/08/21 01:18:22;;;;;;;1.83;0.20;;;24.30;73.10;;;;;;4909687;29;20085;-74
2022/08/21 01:21:11;;;;;;;0.40;0.20;;;24.70;73.50;;;;;;4915541;29;20020;-74
2022/08/21 01:23:43;;;;;;;0.63;0.10;;;25.00;74.40;;;;;;4909579;29;20039;-74
2022/08/21 01:26:12;;;;;;;1.52;0.15;;;25.50;74.20;;;;;;4915050;29;20051;-75
2022/08/21 01:28:49;;;;;;;2.95;0.77;;;26.10;72.30;;;;;;4912550;29;20384;-74
2022/08/21 01:31:20;;;;;;;0.93;0.30;;;25.80;70.30;;;;;;4915343;29;20034;-74
2022/08/21 01:33:48;;;;;;;0.63;0.20;;;25.80;71.40;;;;;;4914280;29;20490;-75
2022/08/21 01:36:15;;;;;;;0.93;0.50;;;25.60;71.90;;;;;;4914978;29;20032;-76
2022/08/21 01:38:43;;;;;;;0.98;0.17;;;25.90;70.20;;;;;;4913945;29;20503;-74
2022/08/21 01:41:10;;;;;;;1.83;0.10;;;25.60;70.20;;;;;;4915606;29;20047;-74
2022/08/21 01:43:38;;;;;;;0.60;0.22;;;25.10;70.70;;;;;;4912817;29;20145;-74
2022/08/21 01:46:06;;;;;;;1.75;0.40;;;24.70;72.00;;;;;;4914873;29;20071;-74
2022/08/21 01:48:33;;;;;;;2.20;0.20;;;25.20;72.10;;;;;;4913496;29;20039;-76
2022/08/21 01:51:01;;;;;;;1.88;0.50;;;25.60;72.30;;;;;;4913911;29;20913;-73
2022/08/21 01:53:28;;;;;;;1.25;0.20;;;25.60;71.20;;;;;;4913185;29;20032;-74
2022/08/21 01:55:56;;;;;;;1.00;0.20;;;25.50;71.60;;;;;;4905869;29;20104;-73
2022/08/21 01:58:23;;;;;;;1.20;0.10;;;25.70;71.80;;;;;;4909932;29;20475;-74
2022/08/21 02:00:51;;;;;;;0.85;0.50;;;25.60;71.40;;;;;;4914830;29;20062;-74
2022/08/21 02:03:18;;;;;;;0.90;0.43;;;24.90;70.30;;;;;;4899175;29;20040;-74
2022/08/21 02:05:45;;;;;;;2.65;0.30;;;24.90;71.90;;;;;;4895786;29;20040;-74
2022/08/21 02:08:13;;;;;;;1.30;0.13;;;25.20;72.80;;;;;;4908452;29;20063;-76
2022/08/21 02:10:40;;;;;;;1.85;0.65;;;25.00;70.70;;;;;;4914902;29;20032;-73
2022/08/21 02:13:08;;;;;;;1.45;0.30;;;24.20;71.40;;;;;;4913113;29;20044;-76
2022/08/21 02:15:36;;;;;;;1.48;0.45;;;24.00;71.90;;;;;;4915417;29;20103;-73
2022/08/21 02:18:06;;;;;;;0.98;0.20;;;23.80;72.60;;;;;;4909600;29;20040;-75
2022/08/21 02:20:43;;;;;;;0.85;0.20;;;23.80;72.50;;;;;;4914690;29;20032;-74
2022/08/21 02:23:12;;;;;;;0.80;0.38;;;23.60;73.30;;;;;;4912507;29;20032;-74
2022/08/21 02:25:40;;;;;;;2.05;0.20;;;23.60;74.40;;;;;;4914167;29;20040;-74
2022/08/21 02:28:10;;;;;;;0.47;0.38;;;23.90;74.60;;;;;;4912849;29;20040;-74
2022/08/21 02:30:46;;;;;;;0.50;0.20;;;24.10;72.00;;;;;;4915010;29;20111;-74
2022/08/21 02:33:15;;;;;;;0.98;0.17;;;24.00;72.00;;;;;;4913084;29;20059;-73
2022/08/21 02:35:44;;;;;;;1.20;0.20;;;23.90;72.70;;;;;;4914937;29;20391;-74
2022/08/21 02:38:16;;;;;;;1.35;0.22;;;23.80;72.70;;;;;;4912774;29;20028;-74
2022/08/21 02:40:46;;;;;;;0.40;0.10;;;23.70;73.70;;;;;;4897316;29;20056;-74
2022/08/21 02:43:15;;;;;;;0.70;0.38;;;23.80;73.30;;;;;;4913086;29;20036;-74
2022/08/21 02:45:42;;;;;;;0.15;0.15;;;24.10;73.70;;;;;;4914521;29;20043;-74
2022/08/21 02:48:13;;;;;;;0.82;0.10;;;24.40;73.40;;;;;;4912753;29;20035;-74
2022/08/21 02:50:46;;;;;;;1.15;0.30;;;24.60;73.20;;;;;;4914981;29;20036;-73
2022/08/21 02:53:16;;;;;;;0.38;0.20;;;24.50;71.10;;;;;;4912935;29;20139;-73
2022/08/21 02:55:46;;;;;;;0.88;0.10;;;24.60;72.00;;;;;;4914421;29;20031;-72
2022/08/21 02:58:17;;;;;;;3.88;0.60;;;24.30;71.40;;;;;;4912040;29;20040;-74
2022/08/21 03:00:45;;;;;;;1.35;0.20;;;24.50;71.60;;;;;;4914627;29;20127;-73
2022/08/21 03:03:14;;;;;;;0.32;0.15;;;24.40;71.70;;;;;;4912310;29;20119;-75
2022/08/21 03:05:42;;;;;;;0.22;0.10;;;24.50;71.80;;;;;;4914798;29;20510;-73
2022/08/21 03:08:12;;;;;;;1.55;0.20;;;24.20;72.00;;;;;;4911745;29;20043;-74
2022/08/21 03:10:43;;;;;;;3.00;0.20;;;24.20;71.30;;;;;;4914350;29;20087;-74
2022/08/21 03:13:12;;;;;;;1.75;0.60;;;24.10;72.00;;;;;;4909763;29;20419;-73
2022/08/21 03:15:40;;;;;;;2.17;0.20;;;23.70;72.90;;;;;;4917614;29;20035;-74
2022/08/21 03:18:09;;;;;;;1.48;0.30;;;23.80;74.80;;;;;;4909304;29;20032;-73
2022/08/21 03:20:38;;;;;;;1.10;0.20;;;24.10;77.00;;;;;;4898043;29;20033;-73
2022/08/21 03:23:07;;;;;;;0.40;0.40;;;24.60;73.20;;;;;;4911103;29;20179;-74
2022/08/21 03:25:35;;;;;;;1.48;0.20;;;24.60;72.50;;;;;;4917335;29;20059;-74
2022/08/21 03:28:06;;;;;;;0.88;0.17;;;24.40;72.40;;;;;;4915367;29;20111;-72
2022/08/21 03:30:34;;;;;;;2.78;0.30;;;24.40;72.60;;;;;;4917280;29;20040;-74
2022/08/21 03:33:02;;;;;;;0.63;0.30;;;24.00;71.80;;;;;;4915365;29;20030;-73
2022/08/21 03:35:30;;;;;;;0.77;0.30;;;23.50;73.60;;;;;;4900294;29;20101;-73
2022/08/21 03:37:57;;;;;;;2.42;0.60;;;23.40;73.60;;;;;;4915459;29;20031;-74
2022/08/21 03:40:25;;;;;;;1.85;0.88;;;23.40;74.40;;;;;;4917451;29;20036;-72
2022/08/21 03:42:53;;;;;;;1.10;0.28;;;23.40;74.20;;;;;;4915631;29;20047;-73
2022/08/21 03:45:21;;;;;;;1.02;0.38;;;23.50;76.60;;;;;;4899680;29;20042;-73
2022/08/21 03:48:08;;;;;;;1.85;0.22;;;23.30;74.00;;;;;;4914744;29;20032;-74
2022/08/21 03:50:39;;;;;;;1.75;0.40;;;22.90;73.10;;;;;;4915333;29;20058;-73
2022/08/21 03:53:06;;;;;;;0.93;0.20;;;22.40;74.40;;;;;;4908323;29;20391;-73
2022/08/21 03:55:34;;;;;;;1.00;0.20;;;22.10;75.50;;;;;;4898022;29;20036;-74
2022/08/21 03:58:01;;;;;;;1.45;0.30;;;22.00;75.70;;;;;;4911630;29;20035;-73
2022/08/21 04:00:29;;;;;;;2.88;0.30;;;22.10;76.40;;;;;;4913871;29;20599;-73
2022/08/21 04:02:57;;;;;;;4.72;0.40;;;22.10;75.40;;;;;;4908972;29;20078;-73
2022/08/21 04:05:28;;;;;;;1.13;0.30;;;22.10;74.90;;;;;;4916696;29;20032;-73
2022/08/21 04:07:57;;;;;;;1.52;0.40;;;21.90;74.60;;;;;;4915209;29;20713;-73
2022/08/21 04:10:27;;;;;;;0.60;0.20;;;22.00;74.90;;;;;;4916741;29;20060;-73
2022/08/21 04:12:55;;;;;;;0.85;0.25;;;21.90;76.80;;;;;;4914470;29;20032;-74
2022/08/21 04:15:24;;;;;;;0.13;0.13;;;22.00;75.00;;;;;;4917063;29;20115;-73
2022/08/21 04:17:51;;;;;;;1.83;0.30;;;22.00;75.80;;;;;;4911345;29;20028;-73
2022/08/21 04:20:21;;;;;;;4.90;0.30;;;22.30;75.80;;;;;;4916305;29;20460;-72
2022/08/21 04:22:50;;;;;;;0.75;0.20;;;22.30;75.30;;;;;;4914295;29;20738;-73
2022/08/21 04:25:18;;;;;;;0.68;0.30;;;22.30;75.60;;;;;;4898889;29;20036;-73
2022/08/21 04:27:46;;;;;;;1.55;0.30;;;21.90;74.60;;;;;;4904146;29;20048;-73
2022/08/21 04:30:15;;;;;;;1.83;0.30;;;21.50;76.00;;;;;;4897020;29;20084;-73
2022/08/21 04:32:47;;;;;;;0.40;0.30;;;21.30;76.90;;;;;;4921935;29;20475;-73
2022/08/21 04:35:18;;;;;;;0.73;0.20;;;21.50;77.70;;;;;;4916230;29;20038;-73
2022/08/21 04:37:45;;;;;;;0.98;0.40;;;21.60;76.90;;;;;;4913712;29;20529;-74
2022/08/21 04:40:15;;;;;;;0.88;0.20;;;21.60;75.70;;;;;;4915636;29;20451;-73
2022/08/21 04:42:59;;;;;;;0.75;0.40;;;21.60;75.50;;;;;;4914390;29;20040;-73
2022/08/21 04:45:33;;;;;;;0.88;0.50;;;21.30;75.70;;;;;;4916082;29;20123;-74
2022/08/21 04:48:04;;;;;;;0.32;0.20;;;21.10;76.70;;;;;;4914602;29;20067;-73
2022/08/21 04:50:49;;;;;;;2.33;0.60;;;21.00;76.40;;;;;;4916399;29;20467;-74
2022/08/21 04:53:24;;;;;;;0.82;0.30;;;21.10;77.10;;;;;;4913787;29;20111;-73
2022/08/21 04:55:54;;;;;;;1.30;0.32;;;21.00;76.30;;;;;;4915868;29;20491;-74
2022/08/21 04:58:25;;;;;;;1.55;0.20;;;20.80;77.20;;;;;;4914263;29;20545;-73
2022/08/21 05:00:57;;;;;;;0.82;0.32;;;20.70;77.00;;;;;;4915873;29;20046;-74
2022/08/21 05:03:25;;;;;;;2.38;0.30;;;20.80;77.70;;;;;;4914341;29;20490;-73
2022/08/21 05:05:53;;;;;;;1.83;0.30;;;20.90;77.90;;;;;;4915956;29;20056;-74
2022/08/21 05:08:24;;;;;;;1.27;0.40;;;20.80;77.00;;;;;;4912720;29;20044;-73
2022/08/21 05:10:51;;;;;;;0.82;0.40;;;20.50;77.90;;;;;;4915390;29;20479;-73
2022/08/21 05:13:19;;;;;;;1.20;0.50;;;20.40;77.60;;;;;;4910288;29;20111;-72
2022/08/21 05:15:47;;;;;;;1.20;0.73;;;20.20;77.80;;;;;;4915036;29;20077;-72
2022/08/21 05:18:14;;;;;;;1.52;0.60;;;20.00;78.10;;;;;;4912790;29;20387;-73
2022/08/21 05:20:44;;;;;;;1.13;0.20;;;20.10;79.20;;;;;;4915169;29;20024;-74
2022/08/21 05:23:14;;;;;;;0.77;0.43;;;20.10;77.90;;;;;;4912952;29;20040;-74
2022/08/21 05:25:43;;;;;;;1.17;0.38;;;20.00;78.50;;;;;;4897987;29;20044;-74
2022/08/21 05:28:11;;;;;;;1.00;0.10;;;20.10;79.60;;;;;;4909790;29;20551;-73
2022/08/21 05:30:40;;;;;;;0.93;0.43;;;20.10;79.30;;;;;;4913954;29;20040;-73
2022/08/21 05:33:08;;;;;;;0.70;0.20;;;20.00;79.00;;;;;;4913519;29;20056;-73
2022/08/21 05:35:36;;;;;;;2.00;0.32;;;20.00;78.80;;;;;;4914752;29;20471;-74
2022/08/21 05:38:04;;;;;;;2.55;0.38;;;20.10;78.80;;;;;;4912855;29;20111;-74
2022/08/21 05:40:32;;;;;;;1.70;0.20;;;20.20;79.30;;;;;;4915364;29;20495;-73
2022/08/21 05:43:01;;;;;;;0.40;0.20;;;20.10;79.00;;;;;;4913308;29;20118;-73
2022/08/21 05:45:31;;;;;;;2.53;0.40;;;20.00;79.50;;;;;;4914895;29;20044;-72
2022/08/21 05:48:05;;;;;;;0.40;0.20;;;20.10;79.80;;;;;;4913043;29;20058;-73
2022/08/21 05:50:33;;;;;;;0.47;0.20;;;20.20;79.70;;;;;;4914687;29;20036;-74
2022/08/21 05:53:00;;;;;;;0.60;0.22;;;20.20;78.80;;;;;;4912912;29;20168;-74
2022/08/21 05:55:28;;;;;;;2.63;0.43;;;20.20;79.20;;;;;;4915946;29;20024;-74
2022/08/21 05:57:55;;;;;;;0.20;0.20;;;20.30;79.00;;;;;;4918799;29;20032;-75
2022/08/21 06:00:23;;;;;;;1.70;0.70;;;20.30;78.50;;;;;;4914654;29;20047;-72
2022/08/21 06:02:51;;;;;;;1.13;0.30;;;20.30;78.80;;;;;;4913031;29;20060;-72
2022/08/21 06:05:19;;;;;;;0.68;0.30;;;20.20;79.40;;;;;;4914578;29;20096;-74
2022/08/21 06:07:46;;;;;;;1.23;0.22;;;20.30;79.80;;;;;;4913025;29;20032;-74
2022/08/21 06:10:14;;;;;;;0.77;0.20;;;20.40;79.50;;;;;;4914706;29;20044;-73
2022/08/21 06:12:41;;;;;;;1.95;0.28;;;20.50;79.30;;;;;;4908718;29;20028;-73
2022/08/21 06:15:09;;;;;;;1.45;0.20;;;20.50;79.50;;;;;;4901361;29;20020;-73
2022/08/21 06:17:36;;;;;;;0.52;0.30;;;20.40;79.50;;;;;;4913019;29;20501;-74
2022/08/21 06:20:04;;;;;;;1.98;0.30;;;20.30;80.00;;;;;;4914820;29;20123;-75
2022/08/21 06:22:32;;;;;;;4.35;0.40;;;20.20;78.90;;;;;;4912695;29;20042;-73
2022/08/21 06:24:59;;;;;;;0.32;0.10;;;20.10;80.50;;;;;;4914713;29;20438;-73
2022/08/21 06:27:26;;;;;;;0.45;0.22;;;20.00;79.70;;;;;;4913242;29;20482;-73
2022/08/21 06:29:56;;;;;;;1.20;0.20;;;19.90;79.70;;;;;;4915278;29;20032;-75
2022/08/21 06:32:23;;;;;;;5.10;0.68;;;19.80;80.00;;;;;;4912743;29;20038;-73
2022/08/21 06:34:51;;;;;;;1.55;0.40;;;19.70;79.80;;;;;;4914700;29;20403;-73
2022/08/21 06:37:18;;;;;;;1.00;0.50;;;19.50;80.70;;;;;;4905702;29;20024;-73
2022/08/21 06:39:45;;;;;;;1.40;0.40;;;19.40;80.60;;;;;;4895343;29;20409;-73
2022/08/21 06:42:17;;;;;;;1.10;1.10;;;19.20;81.30;;;;;;4901144;29;20039;-74
2022/08/21 06:44:45;;;;;;;1.90;0.35;;;19.10;82.00;;;;;;4914649;29;20380;-74
2022/08/21 06:47:12;;;;;;;1.15;0.30;;;19.00;81.80;;;;;;4913555;29;20027;-73
2022/08/21 06:49:40;;;;;;;1.52;0.40;;;19.00;81.50;;;;;;4917381;29;20088;-74
2022/08/21 06:52:12;;;;;;;1.00;0.65;;;18.90;81.90;;;;;;4916514;29;20031;-71
2022/08/21 06:54:41;;;;;;;2.60;0.40;;;18.90;82.40;;;;;;4917996;29;20456;-74
2022/08/21 06:57:08;;;;;;;2.67;0.40;;;18.80;82.60;;;;;;4916280;29;20032;-74
2022/08/21 06:59:36;;;;;;;2.00;0.45;;;18.70;83.00;;;;;;4918106;29;20100;-73
2022/08/21 07:02:03;;;;;;;0.45;0.32;;;18.70;83.30;;;;;;4911592;29;20033;-74
2022/08/21 07:04:31;;;;;;;2.13;0.60;;;18.50;83.10;;;;;;4909387;29;20495;-73
2022/08/21 07:06:58;;;;;;;0.50;0.40;;;18.40;84.90;;;;;;4916280;29;20032;-73
2022/08/21 07:09:28;;;;;;;1.95;0.30;;;18.30;83.50;;;;;;4917190;29;20519;-73
2022/08/21 07:11:57;;;;;;;0.70;0.35;;;18.20;83.80;;;;;;4915821;29;20032;-74
2022/08/21 07:14:24;;;;;;;2.38;0.50;;;18.10;85.00;;;;;;4905783;29;20032;-73
2022/08/21 07:16:52;;;;;;;0.98;0.30;;;18.00;85.20;;;;;;4901468;29;20499;-73
2022/08/21 07:19:20;;;;;;;2.78;0.45;;;17.90;85.00;;;;;;4917717;29;20028;-74
2022/08/21 07:21:48;;;;;;;1.15;0.40;;;17.90;85.30;;;;;;4916346;29;20039;-73
2022/08/21 07:24:15;;;;;;;1.48;0.30;;;17.70;86.10;;;;;;4917288;29;20039;-73
2022/08/21 07:26:43;;;;;;;1.40;0.77;;;17.60;86.00;;;;;;4916364;29;20055;-73
2022/08/21 07:29:10;;;;;;;1.70;0.55;;;17.50;85.80;;;;;;4917841;29;20036;-74
2022/08/21 07:31:38;;;;;;;2.70;0.68;;;17.40;86.00;;;;;;4915887;29;20040;-75
2022/08/21 07:34:05;;;;;;;2.80;0.70;;;17.30;86.30;;;;;;4917299;29;20028;-74
2022/08/21 07:36:33;;;;;;;1.10;0.52;;;17.20;86.70;;;;;;4915785;29;20107;-74
2022/08/21 07:39:00;;;;;;;0.50;0.30;;;17.10;87.00;;;;;;4917893;29;20032;-74
2022/08/21 07:41:29;;;;;;;1.77;0.45;;;17.00;88.80;;;;;;4915530;29;20447;-73
2022/08/21 07:44:00;;;;;;;0.70;0.50;;;16.90;89.70;;;;;;4898068;29;20538;-74
2022/08/21 07:46:28;;;;;;;1.27;1.17;;;16.80;89.50;;;;;;4898231;29;20629;-74
2022/08/21 07:48:55;;;;;;;2.80;0.50;;;16.60;88.60;;;;;;4898451;29;20031;-74
2022/08/21 07:51:27;;;;;;;2.40;0.63;;;16.50;88.90;;;;;;4897929;29;20035;-74
2022/08/21 07:53:56;;;;;;;1.45;0.68;;;16.40;90.30;;;;;;4901748;29;20039;-74
2022/08/21 07:56:23;;;;;;;5.43;1.33;;;16.30;90.50;;;;;;4922984;29;20028;-75
2022/08/21 07:58:51;;;;;;;2.22;1.00;;;16.20;90.60;;;;;;4916121;29;20029;-74
2022/08/21 08:01:19;;;;;;;1.80;1.13;;;16.10;91.00;;;;;;4899268;29;20040;-74
2022/08/21 08:03:47;;;;;;;3.80;1.48;;;16.00;90.70;;;;;;4898759;29;20124;-74
2022/08/21 08:06:18;;;;;;;1.77;0.70;;;15.90;91.10;;;;;;4898211;29;20116;-74
2022/08/21 08:08:49;;;;;;;0.98;0.63;;;15.80;91.10;;;;;;4914432;29;20395;-74
2022/08/21 08:11:16;;;;;;;4.57;1.08;;;15.70;91.40;;;;;;4917427;29;20039;-75
2022/08/21 08:13:46;;;;;;;3.35;0.80;;;15.60;91.50;;;;;;4915603;29;20032;-74
2022/08/21 08:16:14;;;;;;;1.80;0.68;;;15.50;91.60;;;;;;4916382;29;20028;-74
2022/08/21 08:18:42;;;;;;;2.25;0.68;;;15.40;91.70;;;;;;4915402;29;20024;-75
2022/08/21 08:21:10;;;;;;;3.42;1.05;;;15.30;92.00;;;;;;4914338;29;20047;-75
2022/08/21 08:23:38;;;;;;;2.70;1.52;;;15.20;92.10;;;;;;4895694;29;20116;-75
2022/08/21 08:26:06;;;;;;;2.80;1.13;;;15.20;91.20;;;;;;4916563;29;20043;-75
2022/08/21 08:28:34;;;;;;;3.38;1.52;;;15.30;91.50;;;;;;4915630;29;20028;-75
2022/08/21 08:31:02;;;;;;;3.25;1.63;;;15.30;91.30;;;;;;4935631;29;20111;-74
2022/08/21 08:33:30;;;;;;;8.00;1.83;;;15.40;91.50;;;;;;4916675;29;20166;-75
2022/08/21 08:35:57;;;;;;;4.15;1.63;;;15.40;91.60;;;;;;4912752;29;20067;-74
2022/08/21 08:38:26;;;;;;;2.72;1.98;;;15.30;91.80;;;;;;4911927;29;20059;-74
2022/08/21 08:40:53;;;;;;;3.80;1.92;;;15.20;92.30;;;;;;4915905;29;20047;-73
2022/08/21 08:43:21;;;;;;;2.88;1.15;;;15.10;92.30;;;;;;4913990;29;20107;-74
2022/08/21 08:45:55;;;;;;;5.22;1.20;;;15.00;93.50;;;;;;4916687;29;20530;-74
2022/08/21 08:48:53;;;;;;;2.58;1.08;;;15.00;94.00;;;;;;4914625;29;20062;-74
2022/08/21 08:51:37;;;;;;;3.63;0.90;;;14.90;94.20;;;;;;4914764;29;20519;-74
2022/08/21 08:54:13;;;;;;;10.93;1.85;;;14.80;94.60;;;;;;4896969;29;20025;-74
2022/08/21 08:56:40;;;;;;;7.53;1.70;;;14.90;95.10;;;;;;4897998;29;20408;-74
2022/08/21 08:59:17;;;;;;;3.70;1.23;;;14.80;95.40;;;;;;4915880;29;20031;-74
2022/08/21 09:01:44;;;;;;;7.03;1.92;;;14.80;95.60;;;;;;4912611;29;20024;-75
2022/08/21 09:04:13;;;;;;;7.13;1.38;;;14.70;95.70;;;;;;4916250;29;20032;-75
2022/08/21 09:07:10;;;;;;;4.00;1.95;;;14.70;96.00;;;;;;4914080;29;20470;-74
2022/08/21 09:10:04;;;;;;;5.45;2.03;;;14.60;96.30;;;;;;4915684;29;20111;-74
2022/08/21 09:13:05;;;;;;;6.47;1.67;;;14.50;96.40;;;;;;4913631;29;20336;-72
2022/08/21 09:15:50;;;;;;;7.55;2.67;;;14.40;96.70;;;;;;4915712;29;20546;-74
2022/08/21 09:18:31;;;;;;;12.75;5.13;;;14.30;97.00;;;;;;4913825;29;20083;-75
2022/08/21 09:21:16;;;;;;;11.65;3.88;;;14.30;97.10;;;;;;4915805;29;20032;-74
2022/08/21 09:24:05;;;;;;;20.58;8.35;;;14.20;97.40;;;;;;4914155;29;20032;-73
2022/08/21 09:26:47;;;;;;;13.52;4.50;;;14.10;97.50;;;;;;4911915;29;20157;-74
2022/08/21 09:29:20;;;;;;;7.72;3.22;;;14.10;97.70;;;;;;4896555;29;20035;-76
2022/08/21 09:31:47;;;;;;;5.78;2.20;;;14.00;97.90;;;;;;4898854;29;20496;-74
2022/08/21 09:34:26;;;;;;;3.28;1.90;;;14.00;98.00;;;;;;4915011;29;20086;-74
2022/08/21 09:36:55;;;;;;;4.25;1.60;;;14.00;98.20;;;;;;4913657;29;20376;-74
2022/08/21 09:39:32;;;;;;;6.72;2.38;;;14.00;98.30;;;;;;4915023;29;20028;-74
2022/08/21 09:42:06;;;;;;;6.88;3.42;;;13.90;98.50;;;;;;4912761;29;20079;-74
2022/08/21 09:44:42;;;;;;;2.72;1.58;;;13.80;98.60;;;;;;4915278;29;20044;-75
2022/08/21 09:47:14;;;;;;;6.85;1.42;;;13.80;98.80;;;;;;4913870;29;20024;-75
2022/08/21 09:49:43;;;;;;;1.83;0.98;;;13.70;98.80;;;;;;4914898;29;20032;-75
2022/08/21 09:52:26;;;;;;;4.70;1.05;;;13.70;98.90;;;;;;4913099;29;20451;-75
2022/08/21 09:54:56;;;;;;;2.58;1.35;;;13.70;99.00;;;;;;4915300;29;20039;-74
2022/08/21 09:57:39;;;;;;;5.57;0.90;;;13.70;99.20;;;;;;4913335;29;20566;-75
2022/08/21 10:00:25;;;;;;;1.65;0.90;;;13.60;99.30;;;;;;4914629;29;20060;-74
2022/08/21 10:02:52;;;;;;;5.75;1.63;;;13.50;99.30;;;;;;4913384;29;20040;-74
2022/08/21 10:05:28;;;;;;;6.00;1.50;;;13.50;99.50;;;;;;4915191;29;20044;-75
2022/08/21 10:07:55;;;;;;;6.28;1.23;;;13.50;99.50;;;;;;4903307;29;20436;-74
2022/08/21 10:10:29;;;;;;;2.90;1.30;;;13.50;99.70;;;;;;4897687;29;20060;-75
2022/08/21 10:13:17;;;;;;;4.95;1.52;;;13.40;99.80;;;;;;4913032;29;20036;-74
2022/08/21 10:15:58;;;;;;;5.85;1.48;;;13.40;99.80;;;;;;4914887;29;20039;-74
2022/08/21 10:19:00;;;;;;;1.95;1.17;;;13.30;99.90;;;;;;4910030;29;20475;-74
2022/08/21 10:21:48;;;;;;;2.42;1.23;;;13.30;99.90;;;;;;4893186;29;20204;-75
2022/08/21 10:24:19;;;;;;;5.13;0.90;;;13.30;99.90;;;;;;4899818;29;20603;-76
2022/08/21 10:27:04;;;;;;;3.67;1.15;;;13.20;99.90;;;;;;4901308;29;20033;-75
2022/08/21 10:29:35;;;;;;;2.47;1.20;;;13.20;99.90;;;;;;4919070;29;20035;-74
2022/08/21 10:32:13;;;;;;;2.45;1.40;;;13.20;99.90;;;;;;4916461;29;20035;-73
2022/08/21 10:35:00;;;;;;;7.78;1.33;;;13.20;99.90;;;;;;4918425;29;20115;-74
2022/08/21 10:37:45;;;;;;;3.92;1.38;;;13.10;99.90;;;;;;4916639;29;20028;-75
2022/08/21 10:40:51;;;;;;;2.67;1.80;;;13.00;99.90;;;;;;4918722;29;20028;-75
2022/08/21 10:43:41;;;;;;;2.40;0.95;;;13.00;99.90;;;;;;4915896;29;20559;-75
2022/08/21 10:46:35;;;;;;;3.22;0.95;;;12.80;99.90;;;;;;4918447;29;20043;-73
2022/08/21 10:49:36;;;;;;;3.58;1.20;;;12.70;99.90;;;;;;4899177;29;20045;-74
2022/08/21 10:52:15;;;;;;;3.42;1.17;;;12.70;99.90;;;;;;4903299;29;20024;-74
2022/08/21 10:54:56;;;;;;;7.25;1.25;;;12.60;99.90;;;;;;4917861;29;20454;-74
2022/08/21 10:57:37;;;;;;;6.30;1.38;;;12.50;99.90;;;;;;4916427;29;20111;-74
2022/08/21 11:00:11;;;;;;;2.80;1.33;;;12.40;99.90;;;;;;4917788;29;20021;-75
2022/08/21 11:03:13;;;;;;;3.35;1.83;;;12.40;99.90;;;;;;4915228;29;20036;-75
2022/08/21 11:05:59;;;;;;;2.90;1.30;;;12.40;99.90;;;;;;4913948;29;20523;-75
2022/08/21 11:08:39;;;;;;;5.40;1.63;;;12.30;99.90;;;;;;4916330;29;20055;-75
2022/08/21 11:11:21;;;;;;;7.90;2.80;;;12.30;99.90;;;;;;4918272;29;20032;-75
2022/08/21 11:14:03;;;;;;;6.45;4.40;;;12.30;99.90;;;;;;4914001;29;20046;-74
2022/08/21 11:17:05;;;;;;;3.65;3.20;;;12.30;99.90;;;;;;4916654;29;20024;-74
2022/08/21 11:19:59;;;;;;;4.68;3.20;;;12.30;99.90;;;;;;4918405;29;20146;-75
2022/08/21 11:22:57;;;;;;;6.78;2.17;;;12.30;99.90;;;;;;4916055;29;20033;-76
2022/08/21 11:25:37;;;;;;;3.08;1.85;;;12.20;99.90;;;;;;4917742;29;20130;-75
2022/08/21 11:28:17;;;;;;;8.48;1.55;;;12.20;99.90;;;;;;4914408;29;20380;-74
2022/08/21 11:30:56;;;;;;;2.05;1.13;;;12.10;99.90;;;;;;4917468;29;20036;-74
2022/08/21 11:33:50;;;;;;;3.20;1.77;;;12.00;99.90;;;;;;4915709;29;20047;-73
2022/08/21 11:36:47;;;;;;;2.90;1.25;;;11.90;99.90;;;;;;4906949;29;20040;-74
2022/08/21 11:39:43;;;;;;;7.20;2.72;;;11.80;99.90;;;;;;4898833;29;20083;-75
2022/08/21 11:42:46;;;;;;;4.85;1.67;;;11.70;99.90;;;;;;4903459;29;20393;-74
2022/08/21 11:45:19;;;;;;;6.20;2.75;;;11.70;99.90;;;;;;4901159;29;20080;-74
2022/08/21 11:48:07;;;;;;;3.13;1.70;;;11.70;99.90;;;;;;4915407;29;20039;-74
2022/08/21 11:50:38;;;;;;;3.33;1.50;;;11.70;99.90;;;;;;4917559;29;20050;-74
2022/08/21 11:53:26;;;;;;;4.45;1.27;;;11.70;99.90;;;;;;4916533;29;20031;-74
2022/08/21 11:55:57;;;;;;;4.53;1.63;;;11.60;99.90;;;;;;4917217;29;20028;-73
2022/08/21 11:58:27;;;;;;;6.75;1.73;;;11.60;99.90;;;;;;4915828;29;20028;-75
2022/08/21 12:01:11;;;;;;;10.05;2.05;;;11.60;99.90;;;;;;4917192;29;20032;-75
2022/08/21 12:03:53;;;;;;;4.15;1.58;;;11.50;99.90;;;;;;4915564;29;20137;-75
2022/08/21 12:06:31;;;;;;;3.58;1.08;;;11.50;99.90;;;;;;4916005;29;20040;-74
2022/08/21 12:09:03;;;;;;;8.68;1.52;;;11.50;99.90;;;;;;4881378;29;20131;-75
2022/08/21 12:11:32;;;;;;;2.55;1.20;;;11.40;99.90;;;;;;4914557;29;20031;-74
2022/08/21 12:14:15;;;;;;;4.97;1.17;;;11.40;99.90;;;;;;4917002;29;20171;-75
2022/08/21 12:16:45;;;;;;;7.20;1.80;;;11.40;99.90;;;;;;4915383;29;20079;-75
2022/08/21 12:19:25;;;;;;;4.40;1.88;;;11.30;99.90;;;;;;4913315;29;20167;-74
2022/08/21 12:22:10;;;;;;;6.05;1.85;;;11.30;99.90;;;;;;4914849;29;20276;-74
2022/08/21 12:24:51;;;;;;;6.60;1.63;;;11.30;99.90;;;;;;4916505;29;20032;-75
2022/08/21 12:27:24;;;;;;;4.53;1.88;;;11.20;99.90;;;;;;4914959;29;20371;-74
2022/08/21 12:30:04;;;;;;;5.95;1.95;;;11.20;99.90;;;;;;4916589;29;20040;-74
2022/08/21 12:32:45;;;;;;;4.43;1.98;;;11.20;99.90;;;;;;4914624;29;20096;-74
2022/08/21 12:35:38;;;;;;;3.90;1.67;;;11.10;99.90;;;;;;4916283;29;20036;-75
2022/08/21 12:38:18;;;;;;;9.23;2.30;;;11.10;99.90;;;;;;4914661;29;20546;-75
2022/08/21 12:41:06;;;;;;;7.57;1.83;;;11.10;99.90;;;;;;4916489;29;20084;-74
2022/08/21 12:43:43;;;;;;;6.05;1.98;;;11.00;99.90;;;;;;4915252;29;20059;-74
2022/08/21 12:46:21;;;;;;;4.60;2.35;;;10.90;99.90;;;;;;4899130;29;20068;-75
2022/08/21 12:49:22;;;;;;;7.78;2.50;;;10.90;99.90;;;;;;4915516;29;20103;-75
2022/08/21 12:51:56;;;;;;;8.32;3.55;;;10.90;99.90;;;;;;4913541;29;20036;-75
2022/08/21 12:54:32;;;;;;;9.75;4.07;;;10.80;99.90;;;;;;4907711;29;20037;-75
2022/08/21 12:57:06;;;;;;;11.57;3.85;;;10.80;99.90;;;;;;4914560;29;20035;-74
2022/08/21 12:59:37;;;;;;;9.55;4.05;;;10.70;99.90;;;;;;4916089;29;20028;-75
2022/08/21 13:02:13;;;;;;;8.13;3.35;;;10.60;99.90;;;;;;4914075;29;20043;-73
2022/08/21 13:04:41;;;;;;;;;;;10.60;99.90;;;;;;4916182;29;20106;-74
2022/08/21 13:07:12;;;;;;;5.53;3.42;;;10.50;99.90;;;;;;4913705;29;19918;-74
2022/08/21 13:09:54;;;;;;;9.57;3.80;;;10.40;99.90;;;;;;4915252;29;20056;-74
2022/08/21 13:12:23;;;;;;;8.75;3.30;;;10.30;99.90;;;;;;4913480;29;20047;-75
2022/08/21 13:14:52;;;;;;;7.35;3.40;;;10.20;99.90;;;;;;4915363;29;20027;-75
2022/08/21 13:17:26;;;;;;;11.75;6.95;;;10.10;99.90;;;;;;4911593;29;20474;-74